sensor_id;sensor_type;location;lat;lon;timestamp;temperature;humidity
22532;DHT22;11432;46.924;7.114;2023-04-24T00:01:28;8.90;99.90
22532;DHT22;11432;46.924;7.114;2023-04-24T00:03:55;8.90;99.90
22532;DHT22;11432;46.924;7.114;2023-04-24T00:06:27;8.90;99.90
22532;DHT22;11432;46.924;7.114;2023-04-24T00:09:00;8.90;99.90
22532;DHT22;11432;46.924;7.114;2023-04-24T00:11:26;8.80;99.90
22532;DHT22;11432;46.924;7.114;2023-04-24T00:13:52;8.80;99.90
22532;DHT22;11432;46.924;7.114;2023-04-24T00:16:18;8.80;99.90
22532;DHT22;11432;46.924;7.114;2023-04-24T00:18:43;8.80;99.90
22532;DHT22;11432;46.924;7.114;2023-04-24T00:21:10;8.90;99.90
22532;DHT22;11432;46.924;7.114;2023-04-24T00:23:36;8.80;99.90
22532;DHT22;11432;46.924;7.114;2023-04-24T00:26:02;8.80;99.90
22532;DHT22;11432;46.924;7.114;2023-04-24T00:28:27;8.80;99.90
22532;DHT22;11432;46.924;7.114;2023-04-24T00:30:53;8.80;99.90
22532;DHT22;11432;46.924;7.114;2023-04-24T00:33:19;8.80;99.90
22532;DHT22;11432;46.924;7.114;2023-04-24T00:35:45;8.70;99.90
22532;DHT22;11432;46.924;7.114;2023-04-24T00:38:11;8.80;99.90
22532;DHT22;11432;46.924;7.114;2023-04-24T00:40:37;8.70;99.90
22532;DHT22;11432;46.924;7.114;2023-04-24T00:43:02;8.70;99.90
22532;DHT22;11432;46.924;7.114;2023-04-24T00:45:28;8.70;99.90
22532;DHT22;11432;46.924;7.114;2023-04-24T00:47:53;8.70;99.90
22532;DHT22;11432;46.924;7.114;2023-04-24T00:50:21;8.70;99.90
22532;DHT22;11432;46.924;7.114;2023-04-24T00:52:46;8.80;99.90
22532;DHT22;11432;46.924;7.114;2023-04-24T00:55:12;8.80;99.90
22532;DHT22;11432;46.924;7.114;2023-04-24T00:57:38;8.80;99.90
22532;DHT22;11432;46.924;7.114;2023-04-24T01:00:05;8.80;99.90
22532;DHT22;11432;46.924;7.114;2023-04-24T01:02:31;8.80;99.90
22532;DHT22;11432;46.924;7.114;2023-04-24T01:05:00;8.80;99.90
22532;DHT22;11432;46.924;7.114;2023-04-24T01:07:26;8.90;99.90
22532;DHT22;11432;46.924;7.114;2023-04-24T01:09:52;8.90;99.90
22532;DHT22;11432;46.924;7.114;2023-04-24T01:12:19;8.80;99.90
22532;DHT22;11432;46.924;7.114;2023-04-24T01:14:45;8.90;99.90
22532;DHT22;11432;46.924;7.114;2023-04-24T01:17:11;9.00;99.90
22532;DHT22;11432;46.924;7.114;2023-04-24T01:19:37;9.00;99.90
22532;DHT22;11432;46.924;7.114;2023-04-24T01:22:11;9.00;99.90
22532;DHT22;11432;46.924;7.114;2023-04-24T01:24:38;9.00;99.90
22532;DHT22;11432;46.924;7.114;2023-04-24T01:27:04;9.00;99.90
22532;DHT22;11432;46.924;7.114;2023-04-24T01:29:29;9.00;99.90
22532;DHT22;11432;46.924;7.114;2023-04-24T01:31:55;9.00;99.90
22532;DHT22;11432;46.924;7.114;2023-04-24T01:34:22;9.00;99.90
22532;DHT22;11432;46.924;7.114;2023-04-24T01:36:48;9.00;99.90
22532;DHT22;11432;46.924;7.114;2023-04-24T01:39:13;9.00;99.90
22532;DHT22;11432;46.924;7.114;2023-04-24T01:41:40;9.00;99.90
22532;DHT22;11432;46.924;7.114;2023-04-24T01:44:06;9.10;99.90
22532;DHT22;11432;46.924;7.114;2023-04-24T01:46:32;9.10;99.90
22532;DHT22;11432;46.924;7.114;2023-04-24T01:49:00;9.10;99.90
22532;DHT22;11432;46.924;7.114;2023-04-24T01:51:26;9.10;99.90
22532;DHT22;11432;46.924;7.114;2023-04-24T01:53:52;9.20;99.90
22532;DHT22;11432;46.924;7.114;2023-04-24T01:56:20;9.10;99.90
22532;DHT22;11432;46.924;7.114;2023-04-24T01:58:47;9.10;99.90
22532;DHT22;11432;46.924;7.114;2023-04-24T02:01:19;9.10;99.90
22532;DHT22;11432;46.924;7.114;2023-04-24T02:03:45;9.10;99.90
22532;DHT22;11432;46.924;7.114;2023-04-24T02:06:11;9.10;99.90
22532;DHT22;11432;46.924;7.114;2023-04-24T02:08:36;9.20;99.90
22532;DHT22;11432;46.924;7.114;2023-04-24T02:11:02;9.20;99.90
22532;DHT22;11432;46.924;7.114;2023-04-24T02:13:28;9.20;99.90
22532;DHT22;11432;46.924;7.114;2023-04-24T02:15:53;9.30;99.90
22532;DHT22;11432;46.924;7.114;2023-04-24T02:18:19;9.20;99.90
22532;DHT22;11432;46.924;7.114;2023-04-24T02:20:45;9.30;99.90
22532;DHT22;11432;46.924;7.114;2023-04-24T02:23:10;9.30;99.90
22532;DHT22;11432;46.924;7.114;2023-04-24T02:25:36;9.20;99.90
22532;DHT22;11432;46.924;7.114;2023-04-24T02:28:02;9.20;99.90
22532;DHT22;11432;46.924;7.114;2023-04-24T02:30:28;9.20;99.90
22532;DHT22;11432;46.924;7.114;2023-04-24T02:32:54;9.20;99.90
22532;DHT22;11432;46.924;7.114;2023-04-24T02:35:20;9.20;99.90
22532;DHT22;11432;46.924;7.114;2023-04-24T02:37:46;9.20;99.90
22532;DHT22;11432;46.924;7.114;2023-04-24T02:40:11;9.20;99.90
22532;DHT22;11432;46.924;7.114;2023-04-24T02:42:37;9.20;99.90
22532;DHT22;11432;46.924;7.114;2023-04-24T02:45:03;9.30;99.90
22532;DHT22;11432;46.924;7.114;2023-04-24T02:47:29;9.20;99.90
22532;DHT22;11432;46.924;7.114;2023-04-24T02:49:54;9.30;99.90
22532;DHT22;11432;46.924;7.114;2023-04-24T02:52:20;9.20;99.90
22532;DHT22;11432;46.924;7.114;2023-04-24T02:54:45;9.30;99.90
22532;DHT22;11432;46.924;7.114;2023-04-24T02:57:11;9.20;99.90
22532;DHT22;11432;46.924;7.114;2023-04-24T02:59:37;9.20;99.90
22532;DHT22;11432;46.924;7.114;2023-04-24T03:02:02;9.20;99.90
22532;DHT22;11432;46.924;7.114;2023-04-24T03:04:28;9.30;99.90
22532;DHT22;11432;46.924;7.114;2023-04-24T03:06:54;9.20;99.90
22532;DHT22;11432;46.924;7.114;2023-04-24T03:09:21;9.30;99.90
22532;DHT22;11432;46.924;7.114;2023-04-24T03:11:46;9.10;99.90
22532;DHT22;11432;46.924;7.114;2023-04-24T03:14:12;9.10;99.90
22532;DHT22;11432;46.924;7.114;2023-04-24T03:16:37;9.00;99.90
22532;DHT22;11432;46.924;7.114;2023-04-24T03:19:03;8.90;99.90
22532;DHT22;11432;46.924;7.114;2023-04-24T03:21:29;8.90;99.90
22532;DHT22;11432;46.924;7.114;2023-04-24T03:23:55;8.80;99.90
22532;DHT22;11432;46.924;7.114;2023-04-24T03:26:20;8.80;99.90
22532;DHT22;11432;46.924;7.114;2023-04-24T03:28:46;8.70;99.90
22532;DHT22;11432;46.924;7.114;2023-04-24T03:31:11;8.70;99.90
22532;DHT22;11432;46.924;7.114;2023-04-24T03:33:37;8.70;99.90
22532;DHT22;11432;46.924;7.114;2023-04-24T03:36:03;8.80;99.90
22532;DHT22;11432;46.924;7.114;2023-04-24T03:38:30;8.80;99.90
22532;DHT22;11432;46.924;7.114;2023-04-24T03:40:55;8.90;99.90
22532;DHT22;11432;46.924;7.114;2023-04-24T03:43:21;8.80;99.90
22532;DHT22;11432;46.924;7.114;2023-04-24T03:45:47;8.80;99.90
22532;DHT22;11432;46.924;7.114;2023-04-24T03:48:12;8.80;99.90
22532;DHT22;11432;46.924;7.114;2023-04-24T03:50:38;8.90;99.90
22532;DHT22;11432;46.924;7.114;2023-04-24T03:53:03;8.90;99.90
22532;DHT22;11432;46.924;7.114;2023-04-24T03:55:29;8.90;99.90
22532;DHT22;11432;46.924;7.114;2023-04-24T03:57:55;9.00;99.90
22532;DHT22;11432;46.924;7.114;2023-04-24T04:00:20;9.00;99.90
22532;DHT22;11432;46.924;7.114;2023-04-24T04:02:46;9.10;99.90
22532;DHT22;11432;46.924;7.114;2023-04-24T04:05:12;9.20;99.90
22532;DHT22;11432;46.924;7.114;2023-04-24T04:07:37;9.20;99.90
22532;DHT22;11432;46.924;7.114;2023-04-24T04:10:03;9.10;99.90
22532;DHT22;11432;46.924;7.114;2023-04-24T04:12:29;9.20;99.90
22532;DHT22;11432;46.924;7.114;2023-04-24T04:14:55;9.20;99.90
22532;DHT22;11432;46.924;7.114;2023-04-24T04:17:21;9.20;99.90
22532;DHT22;11432;46.924;7.114;2023-04-24T04:19:46;9.30;99.90
22532;DHT22;11432;46.924;7.114;2023-04-24T04:22:12;9.30;99.90
22532;DHT22;11432;46.924;7.114;2023-04-24T04:24:38;9.30;99.90
22532;DHT22;11432;46.924;7.114;2023-04-24T04:27:06;9.40;99.90
22532;DHT22;11432;46.924;7.114;2023-04-24T04:29:32;9.40;99.90
22532;DHT22;11432;46.924;7.114;2023-04-24T04:31:58;9.50;99.90
22532;DHT22;11432;46.924;7.114;2023-04-24T04:34:23;9.40;99.90
22532;DHT22;11432;46.924;7.114;2023-04-24T04:36:49;9.50;99.90
22532;DHT22;11432;46.924;7.114;2023-04-24T04:39:15;9.50;99.90
22532;DHT22;11432;46.924;7.114;2023-04-24T04:41:42;9.50;99.90
22532;DHT22;11432;46.924;7.114;2023-04-24T04:44:07;9.50;99.90
22532;DHT22;11432;46.924;7.114;2023-04-24T04:46:34;9.50;99.90
22532;DHT22;11432;46.924;7.114;2023-04-24T04:49:02;9.40;99.90
22532;DHT22;11432;46.924;7.114;2023-04-24T04:51:28;9.40;99.90
22532;DHT22;11432;46.924;7.114;2023-04-24T04:53:54;9.30;99.90
22532;DHT22;11432;46.924;7.114;2023-04-24T04:56:20;9.40;99.90
22532;DHT22;11432;46.924;7.114;2023-04-24T04:58:45;9.30;99.90
22532;DHT22;11432;46.924;7.114;2023-04-24T05:01:11;9.50;99.90
22532;DHT22;11432;46.924;7.114;2023-04-24T05:03:37;9.50;99.90
22532;DHT22;11432;46.924;7.114;2023-04-24T05:06:02;9.50;99.90
22532;DHT22;11432;46.924;7.114;2023-04-24T05:08:28;9.60;99.90
22532;DHT22;11432;46.924;7.114;2023-04-24T05:10:54;9.70;99.90
22532;DHT22;11432;46.924;7.114;2023-04-24T05:13:20;9.60;99.90
22532;DHT22;11432;46.924;7.114;2023-04-24T05:15:46;9.60;99.90
22532;DHT22;11432;46.924;7.114;2023-04-24T05:18:12;9.60;99.90
22532;DHT22;11432;46.924;7.114;2023-04-24T05:20:38;9.60;99.90
22532;DHT22;11432;46.924;7.114;2023-04-24T05:23:03;9.60;99.90
22532;DHT22;11432;46.924;7.114;2023-04-24T05:25:29;9.60;99.90
22532;DHT22;11432;46.924;7.114;2023-04-24T05:27:57;9.70;99.90
22532;DHT22;11432;46.924;7.114;2023-04-24T05:30:23;9.70;99.90
22532;DHT22;11432;46.924;7.114;2023-04-24T05:32:48;9.60;99.90
22532;DHT22;11432;46.924;7.114;2023-04-24T05:35:14;9.60;99.90
22532;DHT22;11432;46.924;7.114;2023-04-24T05:37:39;9.70;99.90
22532;DHT22;11432;46.924;7.114;2023-04-24T05:40:05;9.70;99.90
22532;DHT22;11432;46.924;7.114;2023-04-24T05:42:31;9.80;99.90
22532;DHT22;11432;46.924;7.114;2023-04-24T05:44:57;9.80;99.90
22532;DHT22;11432;46.924;7.114;2023-04-24T05:47:23;9.90;99.90
22532;DHT22;11432;46.924;7.114;2023-04-24T05:49:48;10.00;99.90
22532;DHT22;11432;46.924;7.114;2023-04-24T05:52:17;10.00;99.90
22532;DHT22;11432;46.924;7.114;2023-04-24T05:54:42;10.20;99.90
22532;DHT22;11432;46.924;7.114;2023-04-24T05:57:08;10.30;99.90
22532;DHT22;11432;46.924;7.114;2023-04-24T05:59:36;10.30;99.90
22532;DHT22;11432;46.924;7.114;2023-04-24T06:02:02;10.40;99.90
22532;DHT22;11432;46.924;7.114;2023-04-24T06:04:27;10.40;99.90
22532;DHT22;11432;46.924;7.114;2023-04-24T06:06:53;10.40;99.90
22532;DHT22;11432;46.924;7.114;2023-04-24T06:09:22;10.50;99.90
22532;DHT22;11432;46.924;7.114;2023-04-24T06:11:49;10.50;99.90
22532;DHT22;11432;46.924;7.114;2023-04-24T06:14:18;10.50;99.90
22532;DHT22;11432;46.924;7.114;2023-04-24T06:16:43;10.50;99.90
22532;DHT22;11432;46.924;7.114;2023-04-24T06:19:09;10.60;99.90
22532;DHT22;11432;46.924;7.114;2023-04-24T06:21:34;10.70;99.90
22532;DHT22;11432;46.924;7.114;2023-04-24T06:24:00;10.60;99.90
22532;DHT22;11432;46.924;7.114;2023-04-24T06:26:26;10.70;98.10
22532;DHT22;11432;46.924;7.114;2023-04-24T06:28:52;10.70;94.90
22532;DHT22;11432;46.924;7.114;2023-04-24T06:31:19;10.70;99.90
22532;DHT22;11432;46.924;7.114;2023-04-24T06:33:45;10.80;99.90
22532;DHT22;11432;46.924;7.114;2023-04-24T06:36:12;10.80;83.80
22532;DHT22;11432;46.924;7.114;2023-04-24T06:38:37;10.80;91.60
22532;DHT22;11432;46.924;7.114;2023-04-24T06:41:03;10.80;99.90
22532;DHT22;11432;46.924;7.114;2023-04-24T06:43:31;10.80;87.50
22532;DHT22;11432;46.924;7.114;2023-04-24T06:45:57;10.70;83.30
22532;DHT22;11432;46.924;7.114;2023-04-24T06:48:24;10.80;90.60
22532;DHT22;11432;46.924;7.114;2023-04-24T06:50:50;10.90;79.90
22532;DHT22;11432;46.924;7.114;2023-04-24T06:53:16;11.00;99.90
22532;DHT22;11432;46.924;7.114;2023-04-24T06:55:41;11.10;50.20
22532;DHT22;11432;46.924;7.114;2023-04-24T06:58:08;11.00;45.80
22532;DHT22;11432;46.924;7.114;2023-04-24T07:00:34;11.00;46.50
22532;DHT22;11432;46.924;7.114;2023-04-24T07:03:00;11.10;30.00
22532;DHT22;11432;46.924;7.114;2023-04-24T07:05:25;11.20;30.70
22532;DHT22;11432;46.924;7.114;2023-04-24T07:07:51;11.30;38.10
22532;DHT22;11432;46.924;7.114;2023-04-24T07:10:17;11.40;99.90
22532;DHT22;11432;46.924;7.114;2023-04-24T07:12:43;11.40;99.90
22532;DHT22;11432;46.924;7.114;2023-04-24T07:15:09;11.50;99.90
22532;DHT22;11432;46.924;7.114;2023-04-24T07:17:35;11.50;99.90
22532;DHT22;11432;46.924;7.114;2023-04-24T07:20:00;11.30;99.90
22532;DHT22;11432;46.924;7.114;2023-04-24T07:22:26;11.10;99.90
22532;DHT22;11432;46.924;7.114;2023-04-24T07:24:52;11.00;1.00
22532;DHT22;11432;46.924;7.114;2023-04-24T07:27:17;10.70;99.90
22532;DHT22;11432;46.924;7.114;2023-04-24T07:29:43;10.60;99.90
22532;DHT22;11432;46.924;7.114;2023-04-24T07:32:08;10.20;1.00
22532;DHT22;11432;46.924;7.114;2023-04-24T07:34:34;10.20;1.00
22532;DHT22;11432;46.924;7.114;2023-04-24T07:37:00;10.20;1.00
22532;DHT22;11432;46.924;7.114;2023-04-24T07:39:26;10.30;1.00
22532;DHT22;11432;46.924;7.114;2023-04-24T07:41:52;10.40;1.00
22532;DHT22;11432;46.924;7.114;2023-04-24T07:44:17;10.80;1.00
22532;DHT22;11432;46.924;7.114;2023-04-24T07:46:43;11.20;1.00
22532;DHT22;11432;46.924;7.114;2023-04-24T07:49:08;11.40;99.90
22532;DHT22;11432;46.924;7.114;2023-04-24T07:51:34;11.40;99.90
22532;DHT22;11432;46.924;7.114;2023-04-24T07:54:04;11.40;99.90
22532;DHT22;11432;46.924;7.114;2023-04-24T07:56:33;11.40;99.90
22532;DHT22;11432;46.924;7.114;2023-04-24T07:58:59;11.40;99.90
22532;DHT22;11432;46.924;7.114;2023-04-24T08:01:26;11.40;99.90
22532;DHT22;11432;46.924;7.114;2023-04-24T08:03:52;11.40;99.90
22532;DHT22;11432;46.924;7.114;2023-04-24T08:06:17;11.40;99.90
22532;DHT22;11432;46.924;7.114;2023-04-24T08:08:43;11.50;99.90
22532;DHT22;11432;46.924;7.114;2023-04-24T08:11:09;11.70;99.90
22532;DHT22;11432;46.924;7.114;2023-04-24T08:13:34;11.80;99.90
22532;DHT22;11432;46.924;7.114;2023-04-24T08:16:00;11.70;99.90
22532;DHT22;11432;46.924;7.114;2023-04-24T08:18:26;11.70;99.90
22532;DHT22;11432;46.924;7.114;2023-04-24T08:20:51;11.70;99.90
22532;DHT22;11432;46.924;7.114;2023-04-24T08:23:17;11.90;99.90
22532;DHT22;11432;46.924;7.114;2023-04-24T08:25:42;12.00;99.90
22532;DHT22;11432;46.924;7.114;2023-04-24T08:28:08;12.10;99.90
22532;DHT22;11432;46.924;7.114;2023-04-24T08:30:34;12.20;99.90
22532;DHT22;11432;46.924;7.114;2023-04-24T08:33:00;12.20;99.90
22532;DHT22;11432;46.924;7.114;2023-04-24T08:35:26;12.20;99.90
22532;DHT22;11432;46.924;7.114;2023-04-24T08:37:52;12.20;99.90
22532;DHT22;11432;46.924;7.114;2023-04-24T08:40:24;12.20;99.90
22532;DHT22;11432;46.924;7.114;2023-04-24T08:42:54;12.30;99.90
22532;DHT22;11432;46.924;7.114;2023-04-24T08:45:21;12.40;99.90
22532;DHT22;11432;46.924;7.114;2023-04-24T08:47:47;12.20;99.90
22532;DHT22;11432;46.924;7.114;2023-04-24T08:50:13;12.30;99.90
22532;DHT22;11432;46.924;7.114;2023-04-24T08:52:38;12.40;99.90
22532;DHT22;11432;46.924;7.114;2023-04-24T08:55:05;12.20;99.90
22532;DHT22;11432;46.924;7.114;2023-04-24T08:57:31;12.10;99.90
22532;DHT22;11432;46.924;7.114;2023-04-24T08:59:58;12.00;99.90
22532;DHT22;11432;46.924;7.114;2023-04-24T09:02:25;11.80;99.90
22532;DHT22;11432;46.924;7.114;2023-04-24T09:04:51;11.90;99.90
22532;DHT22;11432;46.924;7.114;2023-04-24T09:07:19;12.20;99.90
22532;DHT22;11432;46.924;7.114;2023-04-24T09:09:45;12.50;99.90
22532;DHT22;11432;46.924;7.114;2023-04-24T09:12:11;12.70;99.90
22532;DHT22;11432;46.924;7.114;2023-04-24T09:14:37;12.70;99.90
22532;DHT22;11432;46.924;7.114;2023-04-24T09:17:10;12.80;99.90
22532;DHT22;11432;46.924;7.114;2023-04-24T09:19:36;13.00;99.90
22532;DHT22;11432;46.924;7.114;2023-04-24T09:22:05;13.10;99.90
22532;DHT22;11432;46.924;7.114;2023-04-24T09:24:34;12.90;99.90
22532;DHT22;11432;46.924;7.114;2023-04-24T09:27:01;12.90;99.90
22532;DHT22;11432;46.924;7.114;2023-04-24T09:29:27;12.80;99.90
22532;DHT22;11432;46.924;7.114;2023-04-24T09:31:53;12.90;99.90
22532;DHT22;11432;46.924;7.114;2023-04-24T09:34:23;12.70;99.90
22532;DHT22;11432;46.924;7.114;2023-04-24T09:36:49;12.60;99.90
22532;DHT22;11432;46.924;7.114;2023-04-24T09:39:16;12.50;99.90
22532;DHT22;11432;46.924;7.114;2023-04-24T09:41:53;12.70;99.90
22532;DHT22;11432;46.924;7.114;2023-04-24T09:44:21;12.70;99.90
22532;DHT22;11432;46.924;7.114;2023-04-24T09:46:57;12.50;99.90
22532;DHT22;11432;46.924;7.114;2023-04-24T09:49:24;12.30;99.90
22532;DHT22;11432;46.924;7.114;2023-04-24T09:51:50;12.20;99.90
22532;DHT22;11432;46.924;7.114;2023-04-24T09:54:18;12.10;99.90
22532;DHT22;11432;46.924;7.114;2023-04-24T09:56:46;12.30;99.90
22532;DHT22;11432;46.924;7.114;2023-04-24T09:59:14;12.30;99.90
22532;DHT22;11432;46.924;7.114;2023-04-24T10:01:40;12.20;99.90
22532;DHT22;11432;46.924;7.114;2023-04-24T10:04:19;12.30;99.90
22532;DHT22;11432;46.924;7.114;2023-04-24T10:06:45;12.50;99.90
22532;DHT22;11432;46.924;7.114;2023-04-24T10:09:11;12.60;99.90
22532;DHT22;11432;46.924;7.114;2023-04-24T10:11:41;12.50;99.90
22532;DHT22;11432;46.924;7.114;2023-04-24T10:14:09;12.50;99.90
22532;DHT22;11432;46.924;7.114;2023-04-24T10:16:37;12.50;99.90
22532;DHT22;11432;46.924;7.114;2023-04-24T10:19:03;12.50;99.90
22532;DHT22;11432;46.924;7.114;2023-04-24T10:21:29;12.50;99.90
22532;DHT22;11432;46.924;7.114;2023-04-24T10:23:55;12.60;99.90
22532;DHT22;11432;46.924;7.114;2023-04-24T10:26:22;12.50;99.90
22532;DHT22;11432;46.924;7.114;2023-04-24T10:28:48;12.50;99.90
22532;DHT22;11432;46.924;7.114;2023-04-24T10:31:14;13.00;99.90
22532;DHT22;11432;46.924;7.114;2023-04-24T10:33:43;13.10;99.90
22532;DHT22;11432;46.924;7.114;2023-04-24T10:36:12;13.30;99.90
22532;DHT22;11432;46.924;7.114;2023-04-24T10:38:41;13.60;99.90
22532;DHT22;11432;46.924;7.114;2023-04-24T10:41:09;14.10;99.90
22532;DHT22;11432;46.924;7.114;2023-04-24T10:43:35;14.20;99.90
22532;DHT22;11432;46.924;7.114;2023-04-24T10:46:02;13.90;99.90
22532;DHT22;11432;46.924;7.114;2023-04-24T10:48:29;14.00;99.90
22532;DHT22;11432;46.924;7.114;2023-04-24T10:50:55;14.10;99.90
22532;DHT22;11432;46.924;7.114;2023-04-24T10:53:27;13.90;99.90
22532;DHT22;11432;46.924;7.114;2023-04-24T10:56:03;13.40;99.90
22532;DHT22;11432;46.924;7.114;2023-04-24T10:58:52;13.10;99.90
22532;DHT22;11432;46.924;7.114;2023-04-24T11:01:31;13.10;99.90
22532;DHT22;11432;46.924;7.114;2023-04-24T11:03:58;13.00;99.90
22532;DHT22;11432;46.924;7.114;2023-04-24T11:06:34;13.50;99.90
22532;DHT22;11432;46.924;7.114;2023-04-24T11:09:09;14.10;99.90
22532;DHT22;11432;46.924;7.114;2023-04-24T11:11:38;14.20;99.90
22532;DHT22;11432;46.924;7.114;2023-04-24T11:14:08;14.70;99.90
22532;DHT22;11432;46.924;7.114;2023-04-24T11:16:35;14.70;99.90
22532;DHT22;11432;46.924;7.114;2023-04-24T11:19:18;14.60;99.90
22532;DHT22;11432;46.924;7.114;2023-04-24T11:22:13;14.40;99.90
22532;DHT22;11432;46.924;7.114;2023-04-24T11:27:16;14.00;99.90
22532;DHT22;11432;46.924;7.114;2023-04-24T11:35:00;14.00;99.90
22532;DHT22;11432;46.924;7.114;2023-04-24T11:37:34;13.70;99.90
22532;DHT22;11432;46.924;7.114;2023-04-24T11:40:00;13.70;99.90
22532;DHT22;11432;46.924;7.114;2023-04-24T11:42:26;14.00;99.90
22532;DHT22;11432;46.924;7.114;2023-04-24T11:44:53;13.80;99.90
22532;DHT22;11432;46.924;7.114;2023-04-24T11:47:19;13.50;99.90
22532;DHT22;11432;46.924;7.114;2023-04-24T11:49:46;13.30;99.90
22532;DHT22;11432;46.924;7.114;2023-04-24T11:52:15;12.90;99.90
22532;DHT22;11432;46.924;7.114;2023-04-24T11:54:49;12.80;99.90
22532;DHT22;11432;46.924;7.114;2023-04-24T11:57:16;13.10;99.90
22532;DHT22;11432;46.924;7.114;2023-04-24T11:59:41;13.40;99.90
22532;DHT22;11432;46.924;7.114;2023-04-24T12:02:07;13.70;99.90
22532;DHT22;11432;46.924;7.114;2023-04-24T12:04:42;14.10;99.90
22532;DHT22;11432;46.924;7.114;2023-04-24T12:07:08;14.40;99.90
22532;DHT22;11432;46.924;7.114;2023-04-24T12:10:00;14.30;99.90
22532;DHT22;11432;46.924;7.114;2023-04-24T12:12:27;14.70;99.90
22532;DHT22;11432;46.924;7.114;2023-04-24T12:14:57;15.40;99.90
22532;DHT22;11432;46.924;7.114;2023-04-24T12:17:29;15.50;99.90
22532;DHT22;11432;46.924;7.114;2023-04-24T12:20:01;14.50;99.90
22532;DHT22;11432;46.924;7.114;2023-04-24T12:22:28;13.60;99.90
22532;DHT22;11432;46.924;7.114;2023-04-24T12:25:04;13.20;99.90
22532;DHT22;11432;46.924;7.114;2023-04-24T12:27:33;13.20;99.90
22532;DHT22;11432;46.924;7.114;2023-04-24T12:30:00;13.40;99.90
22532;DHT22;11432;46.924;7.114;2023-04-24T12:32:27;13.70;99.90
22532;DHT22;11432;46.924;7.114;2023-04-24T12:34:53;14.30;99.90
22532;DHT22;11432;46.924;7.114;2023-04-24T12:37:19;13.90;99.90
22532;DHT22;11432;46.924;7.114;2023-04-24T12:40:05;13.80;99.90
22532;DHT22;11432;46.924;7.114;2023-04-24T12:42:32;15.10;99.90
22532;DHT22;11432;46.924;7.114;2023-04-24T12:44:59;14.60;99.90
22532;DHT22;11432;46.924;7.114;2023-04-24T12:47:26;14.30;99.90
22532;DHT22;11432;46.924;7.114;2023-04-24T12:49:52;14.20;99.90
22532;DHT22;11432;46.924;7.114;2023-04-24T12:52:24;15.10;99.90
22532;DHT22;11432;46.924;7.114;2023-04-24T12:54:53;15.40;99.90
22532;DHT22;11432;46.924;7.114;2023-04-24T12:57:19;15.60;99.90
22532;DHT22;11432;46.924;7.114;2023-04-24T12:59:44;15.00;99.90
22532;DHT22;11432;46.924;7.114;2023-04-24T13:02:11;14.40;99.90
22532;DHT22;11432;46.924;7.114;2023-04-24T13:04:36;14.10;99.90
22532;DHT22;11432;46.924;7.114;2023-04-24T13:07:02;14.40;99.90
22532;DHT22;11432;46.924;7.114;2023-04-24T13:09:28;15.30;99.90
22532;DHT22;11432;46.924;7.114;2023-04-24T13:11:54;15.10;99.90
22532;DHT22;11432;46.924;7.114;2023-04-24T13:14:20;15.80;99.90
22532;DHT22;11432;46.924;7.114;2023-04-24T13:16:45;15.60;99.90
22532;DHT22;11432;46.924;7.114;2023-04-24T13:19:11;15.10;99.90
22532;DHT22;11432;46.924;7.114;2023-04-24T13:21:36;15.20;99.90
22532;DHT22;11432;46.924;7.114;2023-04-24T13:24:02;15.50;99.90
22532;DHT22;11432;46.924;7.114;2023-04-24T13:26:30;15.40;99.90
22532;DHT22;11432;46.924;7.114;2023-04-24T13:28:55;15.10;99.90
22532;DHT22;11432;46.924;7.114;2023-04-24T13:31:21;14.80;99.90
22532;DHT22;11432;46.924;7.114;2023-04-24T13:33:47;14.50;99.90
22532;DHT22;11432;46.924;7.114;2023-04-24T13:36:13;14.20;99.90
22532;DHT22;11432;46.924;7.114;2023-04-24T13:38:39;14.40;99.90
22532;DHT22;11432;46.924;7.114;2023-04-24T13:41:04;16.00;99.90
22532;DHT22;11432;46.924;7.114;2023-04-24T13:43:30;15.40;99.90
22532;DHT22;11432;46.924;7.114;2023-04-24T13:45:55;16.90;99.90
22532;DHT22;11432;46.924;7.114;2023-04-24T13:48:21;17.90;99.10
22532;DHT22;11432;46.924;7.114;2023-04-24T13:50:47;18.60;94.90
22532;DHT22;11432;46.924;7.114;2023-04-24T13:53:14;18.10;96.40
22532;DHT22;11432;46.924;7.114;2023-04-24T13:55:40;18.20;96.70
22532;DHT22;11432;46.924;7.114;2023-04-24T13:58:06;17.50;97.20
22532;DHT22;11432;46.924;7.114;2023-04-24T14:00:33;17.50;97.60
22532;DHT22;11432;46.924;7.114;2023-04-24T14:02:58;17.50;98.20
22532;DHT22;11432;46.924;7.114;2023-04-24T14:05:24;17.60;97.10
22532;DHT22;11432;46.924;7.114;2023-04-24T14:07:50;18.30;95.20
22532;DHT22;11432;46.924;7.114;2023-04-24T14:10:16;18.40;94.80
22532;DHT22;11432;46.924;7.114;2023-04-24T14:12:42;17.00;96.60
22532;DHT22;11432;46.924;7.114;2023-04-24T14:15:08;16.70;97.40
22532;DHT22;11432;46.924;7.114;2023-04-24T14:17:34;15.90;96.30
22532;DHT22;11432;46.924;7.114;2023-04-24T14:20:00;15.20;98.40
22532;DHT22;11432;46.924;7.114;2023-04-24T14:22:26;15.70;96.40
22532;DHT22;11432;46.924;7.114;2023-04-24T14:24:51;16.60;94.50
22532;DHT22;11432;46.924;7.114;2023-04-24T14:27:17;16.40;95.10
22532;DHT22;11432;46.924;7.114;2023-04-24T14:29:43;15.70;95.90
22532;DHT22;11432;46.924;7.114;2023-04-24T14:32:10;15.30;98.20
22532;DHT22;11432;46.924;7.114;2023-04-24T14:34:36;14.90;99.90
22532;DHT22;11432;46.924;7.114;2023-04-24T14:37:01;15.30;99.20
22532;DHT22;11432;46.924;7.114;2023-04-24T14:39:28;17.30;96.80
22532;DHT22;11432;46.924;7.114;2023-04-24T14:41:53;18.40;93.40
22532;DHT22;11432;46.924;7.114;2023-04-24T14:44:19;17.60;93.70
22532;DHT22;11432;46.924;7.114;2023-04-24T14:46:45;17.80;91.70
22532;DHT22;11432;46.924;7.114;2023-04-24T14:49:10;17.70;88.30
22532;DHT22;11432;46.924;7.114;2023-04-24T14:51:37;19.00;85.30
22532;DHT22;11432;46.924;7.114;2023-04-24T14:54:03;18.70;87.90
22532;DHT22;11432;46.924;7.114;2023-04-24T14:56:29;17.00;89.30
22532;DHT22;11432;46.924;7.114;2023-04-24T14:58:55;16.10;92.40
22532;DHT22;11432;46.924;7.114;2023-04-24T15:01:21;16.90;90.60
22532;DHT22;11432;46.924;7.114;2023-04-24T15:03:46;16.20;89.80
22532;DHT22;11432;46.924;7.114;2023-04-24T15:06:12;15.70;91.10
22532;DHT22;11432;46.924;7.114;2023-04-24T15:08:38;15.80;91.80
22532;DHT22;11432;46.924;7.114;2023-04-24T15:11:04;15.30;93.90
22532;DHT22;11432;46.924;7.114;2023-04-24T15:13:29;15.00;94.80
22532;DHT22;11432;46.924;7.114;2023-04-24T15:15:55;14.80;95.70
22532;DHT22;11432;46.924;7.114;2023-04-24T15:18:20;14.70;97.20
22532;DHT22;11432;46.924;7.114;2023-04-24T15:20:46;14.80;98.20
22532;DHT22;11432;46.924;7.114;2023-04-24T15:23:12;14.80;97.20
22532;DHT22;11432;46.924;7.114;2023-04-24T15:25:37;15.30;96.50
22532;DHT22;11432;46.924;7.114;2023-04-24T15:28:03;16.30;94.50
22532;DHT22;11432;46.924;7.114;2023-04-24T15:30:30;17.60;90.20
22532;DHT22;11432;46.924;7.114;2023-04-24T15:32:56;18.40;83.30
22532;DHT22;11432;46.924;7.114;2023-04-24T15:35:21;18.70;79.60
22532;DHT22;11432;46.924;7.114;2023-04-24T15:37:47;18.90;71.00
22532;DHT22;11432;46.924;7.114;2023-04-24T15:40:13;18.40;75.80
22532;DHT22;11432;46.924;7.114;2023-04-24T15:42:44;17.20;79.80